createdAt,value
2019-02-14T00:00:45.524Z,15.17
2019-02-14T00:05:50.423Z,13.30
2019-02-14T00:10:54.755Z,12.87
2019-02-14T00:15:58.823Z,13.77
2019-02-14T00:21:02.996Z,19.33
2019-02-14T00:26:07.479Z,16.03
2019-02-14T00:31:11.615Z,15.63
2019-02-14T00:36:16.304Z,11.30
2019-02-14T00:41:20.809Z,12.27
2019-02-14T00:46:25.005Z,14.13
2019-02-14T00:51:29.173Z,12.13
2019-02-14T00:56:33.192Z,10.37
2019-02-14T01:01:37.233Z,14.87
2019-02-14T01:06:41.947Z,12.90
2019-02-14T01:11:50.070Z,11.63
2019-02-14T01:16:54.698Z,11.67
2019-02-14T01:22:01.797Z,15.00
2019-02-14T01:27:06.264Z,14.00
2019-02-14T01:32:13.618Z,13.27
2019-02-14T01:37:17.750Z,11.27
2019-02-14T01:42:22.129Z,11.47
2019-02-14T01:47:26.738Z,13.03
2019-02-14T01:52:30.992Z,10.67
2019-02-14T01:57:35.633Z,13.20
2019-02-14T02:02:39.970Z,12.87
2019-02-14T02:07:44.481Z,11.17
2019-02-14T02:12:48.775Z,10.70
2019-02-14T02:17:53.825Z,10.43
2019-02-14T02:22:58.021Z,10.53
2019-02-14T02:28:02.838Z,9.20
2019-02-14T02:33:07.567Z,10.23
2019-02-14T02:38:12.339Z,9.87
2019-02-14T02:43:16.508Z,9.47
2019-02-14T02:48:21.106Z,10.87
2019-02-14T02:53:26.970Z,12.23
2019-02-14T02:58:32.004Z,11.53
2019-02-14T03:03:36.664Z,9.43
2019-02-14T03:08:41.996Z,12.70
2019-02-14T03:13:46.670Z,7.57
2019-02-14T03:18:50.991Z,10.13
2019-02-14T03:23:55.268Z,8.73
2019-02-14T03:28:59.933Z,9.77
2019-02-14T03:34:04.768Z,7.47
2019-02-14T03:39:09.550Z,8.50
2019-02-14T03:44:16.090Z,10.03
2019-02-14T03:49:20.837Z,8.93
2019-02-14T03:54:25.814Z,8.77
2019-02-14T03:59:30.597Z,8.73
2019-02-14T04:04:35.432Z,8.20
2019-02-14T04:09:40.089Z,8.93
2019-02-14T04:14:47.730Z,8.00
2019-02-14T04:19:52.410Z,12.57
2019-02-14T04:24:56.917Z,11.07
2019-02-14T04:30:01.140Z,8.93
2019-02-14T04:35:06.187Z,9.80
2019-02-14T04:40:12.020Z,8.83
2019-02-14T04:45:16.697Z,6.40
2019-02-14T04:50:21.580Z,7.00
2019-02-14T04:55:25.785Z,9.20
2019-02-14T05:00:30.454Z,8.17
2019-02-14T05:05:34.690Z,7.20
2019-02-14T05:10:39.566Z,7.57
2019-02-14T05:15:47.762Z,8.43
2019-02-14T05:20:51.977Z,7.13
2019-02-14T05:25:59.176Z,7.47
2019-02-14T05:31:17.691Z,6.73
2019-02-14T05:36:23.339Z,7.40
2019-02-14T05:41:28.831Z,7.40
2019-02-14T05:46:33.585Z,10.10
2019-02-14T05:51:39.176Z,8.03
2019-02-14T05:56:44.536Z,11.60
2019-02-14T06:01:54.707Z,7.20
2019-02-14T06:07:03.785Z,7.93
2019-02-14T06:12:08.996Z,7.97
2019-02-14T06:17:13.031Z,11.60
2019-02-14T06:22:17.646Z,9.30
2019-02-14T06:27:21.848Z,8.93
2019-02-14T06:32:26.763Z,10.10
2019-02-14T06:37:31.520Z,9.97
2019-02-14T06:42:36.318Z,7.67
2019-02-14T06:47:44.057Z,9.77
2019-02-14T06:52:48.899Z,9.73
2019-02-14T06:57:54.005Z,9.13
2019-02-14T07:03:01.846Z,9.20
2019-02-14T07:08:11.239Z,15.50
2019-02-14T07:13:19.709Z,8.27
2019-02-14T07:18:25.510Z,8.30
2019-02-14T07:23:37.964Z,7.53
2019-02-14T07:28:45.312Z,10.00
2019-02-14T07:33:53.818Z,9.20
2019-02-14T07:39:05.456Z,10.63
2019-02-14T07:44:11.528Z,7.53
2019-02-14T07:49:15.829Z,10.63
2019-02-14T07:54:19.869Z,6.73
2019-02-14T07:59:27.357Z,9.97
2019-02-14T08:04:32.176Z,10.50
2019-02-14T08:09:37.189Z,8.13
2019-02-14T08:14:41.791Z,9.37
2019-02-14T08:19:47.285Z,9.17
2019-02-14T08:24:51.525Z,7.63
2019-02-14T08:29:55.592Z,7.07
2019-02-14T08:35:00.332Z,13.30
2019-02-14T08:40:08.348Z,7.90
2019-02-14T08:45:13.472Z,6.83
2019-02-14T08:50:18.189Z,9.37
2019-02-14T08:55:31.693Z,8.80
2019-02-14T09:00:36.652Z,7.30
2019-02-14T09:05:41.622Z,5.13
2019-02-14T09:10:45.864Z,7.23
2019-02-14T09:15:50.497Z,7.10
2019-02-14T09:20:54.704Z,6.67
2019-02-14T09:26:02.373Z,7.13
2019-02-14T09:31:04.598Z,8.63
2019-02-14T09:36:10.345Z,6.33
2019-02-14T09:41:15.225Z,6.83
2019-02-14T09:46:20.813Z,5.33
2019-02-14T09:51:25.932Z,5.73
2019-02-14T09:56:31.084Z,6.17
2019-02-14T10:01:35.570Z,5.57
2019-02-14T10:06:41.305Z,6.57
2019-02-14T10:11:46.471Z,7.40
2019-02-14T10:16:51.268Z,4.43
2019-02-14T10:21:56.337Z,4.97
2019-02-14T10:27:01.460Z,7.10
2019-02-14T10:32:06.714Z,4.50
2019-02-14T10:37:21.656Z,4.40
2019-02-14T10:42:36.999Z,5.77
2019-02-14T10:47:41.816Z,5.33
2019-02-14T10:52:47.711Z,4.27
2019-02-14T10:57:52.712Z,6.13
2019-02-14T11:08:31.713Z,7.83
2019-02-14T11:13:36.223Z,7.77
2019-02-14T11:18:44.381Z,3.77
2019-02-14T11:23:50.247Z,4.77
2019-02-14T11:28:55.315Z,3.53
2019-02-14T11:34:00.202Z,4.90
2019-02-14T11:39:09.049Z,3.70
2019-02-14T11:44:13.999Z,5.00
2019-02-14T11:49:18.659Z,4.50
2019-02-14T11:54:23.885Z,5.03
2019-02-14T11:59:28.618Z,4.43
2019-02-14T12:04:33.621Z,4.87
2019-02-14T12:09:38.745Z,10.00
2019-02-14T12:14:43.815Z,5.13
2019-02-14T12:19:49.020Z,5.23
2019-02-14T12:24:53.896Z,4.63
2019-02-14T12:29:58.569Z,6.00
2019-02-14T12:35:04.989Z,4.53
2019-02-14T12:40:10.689Z,7.03
2019-02-14T12:45:20.498Z,5.73
2019-02-14T12:50:23.764Z,6.00
2019-02-14T12:55:28.779Z,3.87
2019-02-14T13:00:33.544Z,3.77
2019-02-14T13:05:38.409Z,6.17
2019-02-14T13:10:43.422Z,6.27
2019-02-14T13:15:48.362Z,10.53
2019-02-14T13:20:57.018Z,4.67
2019-02-14T13:26:01.859Z,4.83
2019-02-14T13:31:06.813Z,8.17
2019-02-14T13:36:11.758Z,5.40
2019-02-14T13:41:16.742Z,3.33
2019-02-14T13:46:21.506Z,5.00
2019-02-14T13:51:26.416Z,4.20
2019-02-14T13:56:31.187Z,3.33
2019-02-14T14:01:36.019Z,3.00
2019-02-14T14:06:40.779Z,2.47
2019-02-14T14:12:09.188Z,3.07
2019-02-14T14:17:14.026Z,2.00
2019-02-14T14:22:18.859Z,2.33
2019-02-14T14:27:24.273Z,2.77
2019-02-14T14:32:29.127Z,2.10
2019-02-14T14:37:35.120Z,4.37
2019-02-14T14:43:07.884Z,1.90
2019-02-14T14:48:19.669Z,2.10
2019-02-14T14:53:20.098Z,3.97
2019-02-14T14:58:25.042Z,1.67
2019-02-14T15:03:40.704Z,1.40
2019-02-14T15:08:46.802Z,2.37
2019-02-14T15:13:51.664Z,1.60
2019-02-14T15:18:56.437Z,2.00
2019-02-14T15:24:09.640Z,1.90
2019-02-14T20:55:28.725Z,7.23
2019-02-14T21:00:34.299Z,4.77
2019-02-14T21:05:40.245Z,6.03
2019-02-14T21:10:45.096Z,8.97
2019-02-14T21:15:49.908Z,6.80
2019-02-14T21:20:54.354Z,4.73
2019-02-14T21:25:58.894Z,6.23
2019-02-14T21:31:03.243Z,4.77
2019-02-14T21:36:07.542Z,4.43
2019-02-14T21:41:44.368Z,4.00
2019-02-14T21:46:52.274Z,4.27
2019-02-14T21:52:00.817Z,4.70
2019-02-14T21:57:11.071Z,7.63
2019-02-14T22:02:20.622Z,7.53
2019-02-14T22:07:25.174Z,4.77
2019-02-14T22:12:40.262Z,2.60
2019-02-14T22:17:39.585Z,2.60
2019-02-14T22:22:49.851Z,4.37
2019-02-14T22:27:56.729Z,3.83
2019-02-14T22:33:02.312Z,3.90
2019-02-14T22:38:08.279Z,4.07
2019-02-14T22:43:12.603Z,5.77
2019-02-14T22:48:28.671Z,7.77
2019-02-14T22:53:34.759Z,4.23
2019-02-14T22:58:56.093Z,5.20
2019-02-14T23:04:01.478Z,3.73
2019-02-14T23:09:08.032Z,4.07
2019-02-14T23:14:21.343Z,3.03
2019-02-14T23:19:29.985Z,2.67
2019-02-14T23:24:34.311Z,3.53
2019-02-14T23:29:38.410Z,3.20
2019-02-14T23:34:45.134Z,2.70
2019-02-14T23:39:49.349Z,3.80
2019-02-14T23:44:53.474Z,3.17
2019-02-14T23:49:58.134Z,3.20
2019-02-14T23:55:03.027Z,2.30
